Time;durP1;ratioP1;P1;durP2;ratioP2;P2;SDS_P1;SDS_P2;PMS_P1;PMS_P2;Temp;Humidity;BMP_temperature;BMP_pressure;BME280_temperature;BME280_humidity;BME280_pressure;Samples;Min_cycle;Max_cycle;Signal;HPM_P1;HPM_P2
2023/07/26 00:00:00;;;;;;;6.80;1.95;;;13.60;99.90;;;;;;5062345;28;20430;-79
2023/07/26 00:02:27;;;;;;;6.40;2.08;;;13.60;99.90;;;;;;5074073;28;20064;-79
2023/07/26 00:04:54;;;;;;;8.30;2.20;;;13.60;99.90;;;;;;5074021;28;20060;-78
2023/07/26 00:07:20;;;;;;;6.45;2.45;;;13.50;99.90;;;;;;5073029;28;20129;-78
2023/07/26 00:09:47;;;;;;;5.90;1.90;;;13.40;99.90;;;;;;5074720;28;20363;-78
2023/07/26 00:12:14;;;;;;;5.72;2.10;;;13.30;99.90;;;;;;5075711;28;20094;-78
2023/07/26 00:14:40;;;;;;;5.82;2.08;;;13.30;99.90;;;;;;5060286;28;20040;-78
2023/07/26 00:17:07;;;;;;;10.15;2.13;;;13.10;99.90;;;;;;5076759;28;20091;-78
2023/07/26 00:19:34;;;;;;;6.15;2.47;;;13.10;99.90;;;;;;5076916;28;20036;-78
2023/07/26 00:22:01;;;;;;;5.50;1.90;;;13.00;99.90;;;;;;5076882;28;20048;-79
2023/07/26 00:24:28;;;;;;;6.28;2.05;;;12.90;99.90;;;;;;5055470;28;20049;-79
2023/07/26 00:26:56;;;;;;;7.28;2.20;;;12.90;99.90;;;;;;5056526;28;20371;-79
2023/07/26 00:29:23;;;;;;;6.32;2.22;;;12.90;99.90;;;;;;5056445;28;20041;-79
2023/07/26 00:31:49;;;;;;;5.60;1.75;;;12.90;99.90;;;;;;5055932;28;20041;-78
2023/07/26 00:34:16;;;;;;;5.95;2.00;;;12.90;99.90;;;;;;5057654;28;20049;-78
2023/07/26 00:36:43;;;;;;;6.43;2.10;;;12.90;99.90;;;;;;5056376;28;20471;-78
2023/07/26 00:39:10;;;;;;;7.78;2.20;;;12.90;99.90;;;;;;5056917;28;20041;-79
2023/07/26 00:41:36;;;;;;;7.90;2.30;;;12.80;99.90;;;;;;5055923;28;20057;-78
2023/07/26 00:44:03;;;;;;;7.53;2.25;;;12.80;99.90;;;;;;5057121;28;20045;-78
2023/07/26 00:49:01;;;;;;;6.68;2.28;;;12.70;99.90;;;;;;5057255;28;20072;-78
2023/07/26 00:51:28;;;;;;;6.88;2.03;;;12.60;99.90;;;;;;5057323;28;20406;-79
2023/07/26 00:53:55;;;;;;;6.88;2.38;;;12.60;99.90;;;;;;5055231;28;20037;-79
2023/07/26 00:56:25;;;;;;;5.65;1.98;;;12.60;99.90;;;;;;5056133;28;20356;-79
2023/07/26 00:58:51;;;;;;;5.32;2.10;;;12.60;99.90;;;;;;5055130;28;20368;-78
2023/07/26 01:01:18;;;;;;;7.13;1.95;;;12.60;99.90;;;;;;5056285;28;20102;-78
2023/07/26 01:03:45;;;;;;;6.97;2.30;;;12.50;99.90;;;;;;5055911;28;20055;-79
2023/07/26 01:06:13;;;;;;;7.35;2.45;;;12.50;99.90;;;;;;5055531;28;20045;-77
2023/07/26 01:08:40;;;;;;;6.35;2.00;;;12.50;99.90;;;;;;5055879;28;20037;-78
2023/07/26 01:11:06;;;;;;;4.45;1.90;;;12.40;99.90;;;;;;5056327;28;20344;-78
2023/07/26 01:13:33;;;;;;;8.25;2.10;;;12.40;99.90;;;;;;5055434;28;20462;-77
2023/07/26 01:16:01;;;;;;;7.15;2.08;;;12.40;99.90;;;;;;5055495;28;20044;-77
2023/07/26 01:18:28;;;;;;;5.75;1.80;;;12.40;99.90;;;;;;5038126;28;20471;-78
2023/07/26 01:20:54;;;;;;;8.70;2.08;;;12.40;99.90;;;;;;5039418;28;20049;-78
2023/07/26 01:23:21;;;;;;;5.70;2.13;;;12.30;99.90;;;;;;5054953;28;20479;-78
2023/07/26 01:25:48;;;;;;;4.93;1.80;;;12.30;99.90;;;;;;5054588;28;20107;-78
2023/07/26 01:28:15;;;;;;;5.18;2.00;;;12.30;99.90;;;;;;5056699;28;20497;-78
2023/07/26 01:30:42;;;;;;;8.18;2.00;;;12.30;99.90;;;;;;5038999;28;20041;-78
2023/07/26 01:33:09;;;;;;;5.25;2.13;;;12.30;99.90;;;;;;5054700;28;20135;-78
2023/07/26 01:35:36;;;;;;;6.65;2.08;;;12.20;99.90;;;;;;5055487;28;20442;-78
2023/07/26 01:38:03;;;;;;;5.97;2.05;;;12.20;99.90;;;;;;5056077;28;20114;-79
2023/07/26 01:40:30;;;;;;;6.28;2.17;;;12.20;99.90;;;;;;5037870;28;20067;-78
2023/07/26 01:42:57;;;;;;;6.57;1.90;;;12.10;99.90;;;;;;5073380;28;20538;-78
2023/07/26 01:45:27;;;;;;;5.80;2.17;;;12.00;99.90;;;;;;5075778;28;20363;-78
2023/07/26 01:47:53;;;;;;;6.30;2.28;;;12.00;99.90;;;;;;5058011;28;20049;-79
2023/07/26 01:50:20;;;;;;;12.75;2.13;;;12.00;99.90;;;;;;5058869;28;20063;-78
2023/07/26 01:52:47;;;;;;;5.35;2.05;;;12.00;99.90;;;;;;5089718;28;20040;-78
2023/07/26 01:55:14;;;;;;;5.28;2.00;;;11.90;99.90;;;;;;5096451;28;20443;-78
2023/07/26 01:57:42;;;;;;;9.18;2.47;;;11.90;99.90;;;;;;5078205;28;20040;-78
2023/07/26 02:00:09;;;;;;;6.78;2.20;;;11.80;99.90;;;;;;5077765;28;20056;-78
2023/07/26 02:02:39;;;;;;;5.80;2.40;;;11.90;99.90;;;;;;5079382;28;20059;-78
2023/07/26 02:05:06;;;;;;;7.70;2.20;;;11.90;99.90;;;;;;5077638;28;20047;-79
2023/07/26 02:07:35;;;;;;;6.55;2.05;;;11.80;99.90;;;;;;5077586;28;20044;-79
2023/07/26 02:10:01;;;;;;;7.32;2.28;;;11.80;99.90;;;;;;5077839;28;20526;-79
2023/07/26 02:12:28;;;;;;;6.00;2.13;;;11.80;99.90;;;;;;5077158;28;20189;-79
2023/07/26 02:14:55;;;;;;;4.90;2.08;;;11.70;99.90;;;;;;5095717;28;20109;-79
2023/07/26 02:17:22;;;;;;;7.88;2.47;;;11.70;99.90;;;;;;5061143;28;20436;-79
2023/07/26 02:19:49;;;;;;;6.80;2.17;;;11.70;99.90;;;;;;5094869;28;20043;-79
2023/07/26 02:22:15;;;;;;;6.85;1.70;;;11.60;99.90;;;;;;5077846;28;20048;-79
2023/07/26 02:24:42;;;;;;;8.05;2.25;;;11.60;99.90;;;;;;5078480;28;20184;-79
2023/07/26 02:27:10;;;;;;;6.57;2.20;;;11.60;99.90;;;;;;5060035;28;20109;-79
2023/07/26 02:29:37;;;;;;;5.55;1.98;;;11.60;99.90;;;;;;5077725;28;20044;-78
2023/07/26 02:32:04;;;;;;;6.25;1.92;;;11.60;99.90;;;;;;5060514;28;20071;-79
2023/07/26 02:34:31;;;;;;;6.38;2.22;;;11.50;99.90;;;;;;5076774;28;20058;-79
2023/07/26 02:36:57;;;;;;;7.13;2.17;;;11.50;99.90;;;;;;5060813;28;20059;-79
2023/07/26 02:39:24;;;;;;;5.60;1.90;;;11.50;99.90;;;;;;5094531;28;20040;-79
2023/07/26 02:41:51;;;;;;;7.10;2.13;;;11.50;99.90;;;;;;5094975;28;20079;-79
2023/07/26 02:44:18;;;;;;;5.15;1.92;;;11.50;99.90;;;;;;5077412;28;20074;-79
2023/07/26 02:46:45;;;;;;;5.68;1.88;;;11.40;99.90;;;;;;5094009;28;20040;-79
2023/07/26 02:49:12;;;;;;;5.50;2.03;;;11.40;99.90;;;;;;5060845;28;20113;-79
2023/07/26 02:51:39;;;;;;;6.22;1.77;;;11.40;99.90;;;;;;5094362;28;20494;-79
2023/07/26 02:54:05;;;;;;;4.97;1.90;;;11.30;99.90;;;;;;5095100;28;20032;-79
2023/07/26 02:56:32;;;;;;;4.85;1.95;;;11.30;99.90;;;;;;5094977;28;20043;-79
2023/07/26 02:58:59;;;;;;;7.85;2.45;;;11.30;99.90;;;;;;5076567;28;20044;-79
2023/07/26 03:01:26;;;;;;;5.03;2.00;;;11.30;99.90;;;;;;5077165;28;20043;-79
2023/07/26 03:03:53;;;;;;;5.40;1.88;;;11.20;99.90;;;;;;5077587;28;20358;-79
2023/07/26 03:06:21;;;;;;;6.00;1.80;;;11.20;99.90;;;;;;5094308;28;20111;-79
2023/07/26 03:08:48;;;;;;;5.95;1.70;;;11.20;99.90;;;;;;5076931;28;20036;-78
2023/07/26 03:11:15;;;;;;;8.52;1.92;;;11.20;99.90;;;;;;5077496;28;20113;-78
2023/07/26 03:13:41;;;;;;;4.60;1.90;;;11.20;99.90;;;;;;5076302;28;20032;-79
2023/07/26 03:16:09;;;;;;;4.40;1.92;;;11.20;99.90;;;;;;5077217;28;20054;-79
2023/07/26 03:18:35;;;;;;;5.32;1.90;;;11.20;99.90;;;;;;5076013;28;20051;-79
2023/07/26 03:21:02;;;;;;;6.97;2.60;;;11.10;99.90;;;;;;5079814;28;20360;-79
2023/07/26 03:23:29;;;;;;;7.03;2.10;;;11.10;99.90;;;;;;5057036;28;20041;-79
2023/07/26 03:25:57;;;;;;;6.03;2.17;;;11.10;99.90;;;;;;5055942;28;20497;-79
2023/07/26 03:28:24;;;;;;;8.10;2.20;;;11.00;99.90;;;;;;5057225;28;20422;-79
2023/07/26 03:30:50;;;;;;;6.30;2.13;;;11.00;99.90;;;;;;5074709;28;20037;-78
2023/07/26 03:33:17;;;;;;;7.35;2.40;;;11.00;99.90;;;;;;5056062;28;20367;-79
2023/07/26 03:35:44;;;;;;;7.45;2.25;;;11.00;99.90;;;;;;5056346;28;20133;-79
2023/07/26 03:38:11;;;;;;;6.90;2.25;;;10.90;99.90;;;;;;5057793;28;20831;-78
2023/07/26 03:40:39;;;;;;;6.32;2.40;;;10.90;99.90;;;;;;5073817;28;20098;-79
2023/07/26 03:43:07;;;;;;;5.97;2.20;;;10.90;99.90;;;;;;5074124;28;20063;-79
2023/07/26 03:45:35;;;;;;;6.93;2.42;;;10.80;99.90;;;;;;5056695;28;20055;-79
2023/07/26 03:48:01;;;;;;;8.52;2.10;;;10.80;99.90;;;;;;5078441;28;20051;-79
2023/07/26 03:50:28;;;;;;;6.05;2.28;;;10.80;99.90;;;;;;5043962;28;20079;-79
2023/07/26 03:52:55;;;;;;;7.40;2.65;;;10.80;99.90;;;;;;5059811;28;20110;-78
2023/07/26 03:55:21;;;;;;;5.32;1.90;;;10.80;99.90;;;;;;5078110;28;20048;-79
2023/07/26 03:57:48;;;;;;;7.13;2.22;;;10.80;99.90;;;;;;5060330;28;20091;-78
2023/07/26 04:00:15;;;;;;;5.88;2.30;;;10.80;99.90;;;;;;5060050;28;20352;-77
2023/07/26 04:02:42;;;;;;;7.82;2.50;;;10.70;99.90;;;;;;5078064;28;20055;-78
2023/07/26 04:05:09;;;;;;;5.35;1.95;;;10.70;99.90;;;;;;5077536;28;20044;-78
2023/07/26 04:07:36;;;;;;;7.00;2.15;;;10.60;99.90;;;;;;5077610;28;20461;-77
2023/07/26 04:10:03;;;;;;;8.00;2.38;;;10.60;99.90;;;;;;5060785;28;20117;-78
2023/07/26 04:12:30;;;;;;;6.03;2.05;;;10.60;99.90;;;;;;5076829;28;20083;-78
2023/07/26 04:14:56;;;;;;;7.28;2.42;;;10.60;99.90;;;;;;5060512;28;20452;-78
2023/07/26 04:17:23;;;;;;;6.10;2.30;;;10.60;99.90;;;;;;5077792;28;20045;-78
2023/07/26 04:19:50;;;;;;;4.68;1.83;;;10.60;99.90;;;;;;5077064;28;20114;-78
2023/07/26 04:22:17;;;;;;;7.38;2.88;;;10.60;99.90;;;;;;5043436;28;20107;-78
2023/07/26 04:24:43;;;;;;;6.47;2.42;;;10.60;99.90;;;;;;5060211;28;20200;-78
2023/07/26 04:27:10;;;;;;;6.07;1.88;;;10.60;99.90;;;;;;5076573;28;20040;-78
2023/07/26 04:29:37;;;;;;;4.80;1.77;;;10.60;99.90;;;;;;5043185;28;20048;-78
2023/07/26 04:32:04;;;;;;;7.72;2.83;;;10.60;99.90;;;;;;5059156;28;20045;-78
2023/07/26 04:34:30;;;;;;;9.88;3.22;;;10.60;99.90;;;;;;5059897;28;20044;-78
2023/07/26 04:36:58;;;;;;;6.90;2.30;;;10.60;99.90;;;;;;5077126;28;20089;-78
2023/07/26 04:39:25;;;;;;;5.72;2.15;;;10.60;99.90;;;;;;5059061;28;20075;-78
2023/07/26 04:41:52;;;;;;;7.45;2.60;;;10.60;99.90;;;;;;5077251;28;20090;-78
2023/07/26 04:44:18;;;;;;;7.38;2.50;;;10.60;99.90;;;;;;5077230;28;20048;-79
2023/07/26 04:46:45;;;;;;;8.88;2.42;;;10.60;99.90;;;;;;5076081;28;20115;-78
2023/07/26 04:49:12;;;;;;;9.15;2.80;;;10.70;99.90;;;;;;5059925;28;20064;-78
2023/07/26 04:51:39;;;;;;;7.57;2.75;;;10.70;99.90;;;;;;5059130;28;20051;-78
2023/07/26 04:54:05;;;;;;;6.70;2.38;;;10.70;99.90;;;;;;5077339;28;20064;-78
2023/07/26 04:56:33;;;;;;;10.55;3.55;;;10.70;99.90;;;;;;5076468;28;20130;-78
2023/07/26 04:59:00;;;;;;;11.32;2.97;;;10.80;99.90;;;;;;5075862;28;20044;-78
2023/07/26 05:01:27;;;;;;;9.02;2.60;;;10.90;99.90;;;;;;5077731;28;20102;-78
2023/07/26 05:03:54;;;;;;;7.57;2.47;;;10.90;99.90;;;;;;5077023;28;20072;-78
2023/07/26 05:06:24;;;;;;;9.10;2.50;;;11.00;99.90;;;;;;5075903;28;20086;-80
2023/07/26 05:08:51;;;;;;;6.65;2.70;;;11.10;99.90;;;;;;5077144;28;20104;-77
2023/07/26 05:11:22;;;;;;;7.35;2.42;;;11.20;99.90;;;;;;5076837;28;20094;-78
2023/07/26 05:13:49;;;;;;;14.63;2.95;;;11.30;99.90;;;;;;5076045;28;20067;-78
2023/07/26 05:16:16;;;;;;;6.80;2.35;;;11.40;99.90;;;;;;5076495;28;20124;-77
2023/07/26 05:18:43;;;;;;;9.80;3.15;;;11.50;99.90;;;;;;5075762;28;20044;-78
2023/07/26 05:21:10;;;;;;;8.20;2.90;;;11.60;99.90;;;;;;5076654;28;20101;-78
2023/07/26 05:23:36;;;;;;;12.32;3.30;;;11.70;99.90;;;;;;5076336;28;20048;-77
2023/07/26 05:26:03;;;;;;;7.50;2.83;;;11.70;99.90;;;;;;5075980;28;20119;-78
2023/07/26 05:28:30;;;;;;;10.23;2.88;;;11.80;99.90;;;;;;5059062;28;20433;-78
2023/07/26 05:30:57;;;;;;;8.45;2.85;;;12.00;99.90;;;;;;5059314;28;20064;-77
2023/07/26 05:33:25;;;;;;;6.78;2.33;;;12.10;99.90;;;;;;5058046;28;20047;-78
2023/07/26 05:35:52;;;;;;;7.85;2.60;;;12.30;99.90;;;;;;5058535;28;20438;-79
2023/07/26 05:38:19;;;;;;;9.13;2.90;;;12.50;99.90;;;;;;5076082;28;20045;-78
2023/07/26 05:40:46;;;;;;;10.02;3.20;;;12.60;99.90;;;;;;5076757;28;20127;-78
2023/07/26 05:43:13;;;;;;;8.27;2.92;;;12.70;99.90;;;;;;5076193;28;20052;-78
2023/07/26 05:45:41;;;;;;;10.85;3.30;;;12.80;99.90;;;;;;5075003;28;20036;-79
2023/07/26 05:48:08;;;;;;;8.60;3.13;;;13.00;99.90;;;;;;5076115;28;20037;-78
2023/07/26 05:50:35;;;;;;;8.80;2.88;;;13.10;99.90;;;;;;5076252;28;20044;-79
2023/07/26 05:53:02;;;;;;;8.00;2.90;;;13.20;99.90;;;;;;5075370;28;20041;-79
2023/07/26 05:55:31;;;;;;;7.03;2.88;;;13.40;99.90;;;;;;5076044;28;20114;-79
2023/07/26 05:57:58;;;;;;;7.93;2.60;;;13.50;99.90;;;;;;5075862;28;20051;-79
2023/07/26 06:00:25;;;;;;;7.03;2.85;;;13.60;99.90;;;;;;5075574;28;20048;-78
2023/07/26 06:02:52;;;;;;;11.20;2.97;;;13.60;99.90;;;;;;5075649;28;20041;-78
2023/07/26 06:05:19;;;;;;;11.02;3.05;;;13.70;99.90;;;;;;5074876;28;20454;-78
2023/07/26 06:07:48;;;;;;;9.73;3.13;;;13.90;99.90;;;;;;5075950;28;20124;-79
2023/07/26 06:10:14;;;;;;;8.88;3.17;;;14.00;99.90;;;;;;5058351;28;20048;-78
2023/07/26 06:12:41;;;;;;;7.18;2.58;;;14.10;99.90;;;;;;5074993;28;20119;-79
2023/07/26 06:15:08;;;;;;;7.35;2.65;;;14.10;99.90;;;;;;5058439;28;20067;-79
2023/07/26 06:17:37;;;;;;;7.25;2.72;;;14.10;99.90;;;;;;5057740;28;20056;-78
2023/07/26 06:20:04;;;;;;;10.05;2.95;;;14.10;99.90;;;;;;5074705;28;20063;-79
2023/07/26 06:22:31;;;;;;;6.32;2.42;;;14.20;99.90;;;;;;5075767;28;20416;-78
2023/07/26 06:24:58;;;;;;;6.75;2.50;;;14.30;99.90;;;;;;5074846;28;20478;-79
2023/07/26 06:27:26;;;;;;;7.13;2.15;;;14.40;99.90;;;;;;5074762;28;20115;-79
2023/07/26 06:29:52;;;;;;;9.55;2.78;;;14.50;99.90;;;;;;5075389;28;20041;-78
2023/07/26 06:32:19;;;;;;;7.70;2.72;;;14.70;99.90;;;;;;5074511;28;20054;-79
2023/07/26 06:34:46;;;;;;;9.95;2.60;;;14.90;99.90;;;;;;5075363;28;20040;-78
2023/07/26 06:37:15;;;;;;;5.25;2.20;;;15.10;99.90;;;;;;5075062;28;20074;-79
2023/07/26 06:39:42;;;;;;;8.07;2.78;;;15.10;99.90;;;;;;5074268;28;20368;-79
2023/07/26 06:42:09;;;;;;;7.93;2.50;;;15.20;99.90;;;;;;5057459;28;20056;-79
2023/07/26 06:44:36;;;;;;;8.07;2.45;;;15.30;99.90;;;;;;5075153;28;20055;-80
2023/07/26 06:47:05;;;;;;;7.57;2.90;;;15.50;99.90;;;;;;5056670;28;20052;-78
2023/07/26 06:49:31;;;;;;;6.68;2.50;;;15.60;99.90;;;;;;5075535;28;20417;-79
2023/07/26 06:51:58;;;;;;;8.43;2.80;;;15.70;99.90;;;;;;5074437;28;20382;-79
2023/07/26 06:54:25;;;;;;;6.63;2.53;;;15.90;99.90;;;;;;5074744;28;20045;-79
2023/07/26 06:56:51;;;;;;;8.00;2.65;;;16.10;99.90;;;;;;5074912;28;20405;-79
2023/07/26 06:59:20;;;;;;;7.97;2.63;;;16.20;99.90;;;;;;5074075;28;20116;-79
2023/07/26 07:01:46;;;;;;;11.38;2.70;;;16.40;99.90;;;;;;5074783;28;20528;-79
2023/07/26 07:04:13;;;;;;;7.35;2.72;;;16.50;99.90;;;;;;5074465;28;20040;-79
2023/07/26 07:06:41;;;;;;;8.45;2.40;;;16.50;99.90;;;;;;5073718;28;20430;-78
2023/07/26 07:09:07;;;;;;;6.05;2.35;;;16.60;99.90;;;;;;5057230;28;20524;-78
2023/07/26 07:11:34;;;;;;;6.63;2.40;;;16.60;99.90;;;;;;5074956;28;20127;-79
2023/07/26 07:14:01;;;;;;;7.95;2.67;;;16.80;99.90;;;;;;5073775;28;20048;-79
2023/07/26 07:16:30;;;;;;;6.60;2.40;;;16.90;99.90;;;;;;5074847;28;20048;-79
2023/07/26 07:18:57;;;;;;;7.63;2.50;;;17.20;99.90;;;;;;5073767;28;20157;-78
2023/07/26 07:21:24;;;;;;;6.72;2.17;;;17.30;99.90;;;;;;5059399;28;20082;-78
2023/07/26 07:23:52;;;;;;;10.40;2.40;;;17.50;99.90;;;;;;5079003;28;20072;-78
2023/07/26 07:26:19;;;;;;;6.65;2.53;;;17.60;99.90;;;;;;5077623;28;20044;-79
2023/07/26 07:28:45;;;;;;;7.40;2.50;;;17.70;99.90;;;;;;5078887;28;20063;-78
2023/07/26 07:31:12;;;;;;;7.35;2.72;;;18.00;99.90;;;;;;5078439;28;20041;-79
2023/07/26 07:33:39;;;;;;;7.63;2.22;;;18.10;99.90;;;;;;5078081;28;20448;-80
2023/07/26 07:36:10;;;;;;;9.88;2.88;;;18.20;99.90;;;;;;5060573;28;20403;-80
2023/07/26 07:38:36;;;;;;;6.38;2.50;;;18.30;99.90;;;;;;5078055;28;20044;-80
2023/07/26 07:41:03;;;;;;;6.95;2.42;;;18.40;99.90;;;;;;5060937;28;20044;-79
2023/07/26 07:43:30;;;;;;;6.70;2.28;;;18.50;99.90;;;;;;5078483;28;20135;-80
2023/07/26 07:45:57;;;;;;;6.05;2.13;;;18.70;99.90;;;;;;5077041;28;20408;-80
2023/07/26 07:48:26;;;;;;;5.90;1.83;;;18.70;99.90;;;;;;5078244;28;20082;-80
2023/07/26 07:50:52;;;;;;;6.13;1.90;;;18.80;99.90;;;;;;5077316;28;20053;-81
2023/07/26 07:53:19;;;;;;;7.05;2.60;;;19.00;99.90;;;;;;5068763;28;20722;-81
2023/07/26 07:55:58;;;;;;;6.22;2.10;;;19.20;99.90;;;;;;5050094;28;20036;-83
2023/07/26 07:58:26;;;;;;;6.72;2.33;;;19.40;99.90;;;;;;5076370;28;20061;-84
2023/07/26 08:00:53;;;;;;;6.10;2.17;;;19.50;99.90;;;;;;5059927;28;20041;-82
2023/07/26 08:03:20;;;;;;;7.18;2.13;;;19.60;99.90;;;;;;5076552;28;20055;-80
2023/07/26 08:05:49;;;;;;;5.20;2.10;;;19.60;99.90;;;;;;5058226;28;20128;-79
2023/07/26 08:08:16;;;;;;;5.18;2.05;;;19.70;99.90;;;;;;5076141;28;20071;-81
2023/07/26 08:10:44;;;;;;;5.88;1.70;;;19.70;99.90;;;;;;5076669;28;20485;-81
2023/07/26 08:13:11;;;;;;;6.18;1.90;;;19.70;99.90;;;;;;5076204;28;20062;-82
2023/07/26 08:15:38;;;;;;;6.80;2.00;;;20.00;99.90;;;;;;5077053;28;20037;-80
2023/07/26 08:18:05;;;;;;;6.82;1.98;;;20.00;99.90;;;;;;5060208;28;20466;-82
2023/07/26 08:20:31;;;;;;;6.13;2.05;;;19.80;99.90;;;;;;5076065;28;20044;-82
2023/07/26 08:22:58;;;;;;;6.47;2.17;;;19.90;99.90;;;;;;5059914;28;20071;-83
2023/07/26 08:25:27;;;;;;;4.97;1.95;;;20.00;99.90;;;;;;5058444;28;20051;-83
2023/07/26 08:27:53;;;;;;;6.15;1.98;;;20.10;99.90;;;;;;5076765;28;20065;-81
2023/07/26 08:30:20;;;;;;;5.85;2.05;;;20.30;99.90;;;;;;5059921;28;20044;-82
2023/07/26 08:32:47;;;;;;;6.43;2.08;;;20.50;99.90;;;;;;5075720;28;20049;-81
2023/07/26 08:35:14;;;;;;;6.43;2.33;;;20.80;99.90;;;;;;5059005;28;20052;-83
2023/07/26 08:37:41;;;;;;;5.53;1.92;;;21.00;99.90;;;;;;5059322;28;20467;-83
2023/07/26 08:40:08;;;;;;;5.90;2.15;;;21.20;99.90;;;;;;5058684;28;20534;-82
2023/07/26 08:42:34;;;;;;;5.07;2.00;;;21.40;99.90;;;;;;5059175;28;20067;-82
2023/07/26 08:45:01;;;;;;;6.03;1.90;;;21.50;99.90;;;;;;5057460;28;20444;-79
2023/07/26 08:47:28;;;;;;;5.63;2.35;;;21.50;99.90;;;;;;5077250;28;20044;-80
2023/07/26 08:49:56;;;;;;;7.22;1.90;;;21.40;99.90;;;;;;5059525;28;20482;-79
2023/07/26 08:52:22;;;;;;;5.18;2.00;;;21.30;99.90;;;;;;5076007;28;20098;-79
2023/07/26 08:54:49;;;;;;;5.05;2.00;;;20.90;99.90;;;;;;5077062;28;20048;-80
2023/07/26 08:57:18;;;;;;;6.68;1.95;;;20.40;99.90;;;;;;5077081;28;20042;-80
2023/07/26 08:59:45;;;;;;;7.22;2.33;;;20.50;99.90;;;;;;5076192;28;20367;-80
2023/07/26 09:02:13;;;;;;;5.30;1.98;;;20.30;99.90;;;;;;5077221;28;20109;-79
2023/07/26 09:04:40;;;;;;;6.93;2.28;;;20.30;99.90;;;;;;5076996;28;20048;-79
2023/07/26 09:07:07;;;;;;;6.70;2.15;;;20.50;99.90;;;;;;5075862;28;20045;-80
2023/07/26 09:09:34;;;;;;;5.75;2.05;;;20.40;99.90;;;;;;5058985;28;20351;-79
2023/07/26 09:12:00;;;;;;;10.18;2.47;;;20.40;99.90;;;;;;5075852;28;20045;-79
2023/07/26 09:14:27;;;;;;;5.47;2.03;;;20.80;99.90;;;;;;5076742;28;20120;-80
2023/07/26 09:19:24;;;;;;;5.40;1.95;;;21.80;99.90;;;;;;5075757;28;20164;-80
2023/07/26 09:21:51;;;;;;;7.30;2.38;;;22.00;99.90;;;;;;5077010;28;20536;-81
2023/07/26 09:24:18;;;;;;;8.82;2.45;;;22.20;99.90;;;;;;5060064;28;20101;-79
2023/07/26 09:26:45;;;;;;;7.60;2.20;;;22.30;99.90;;;;;;5075061;28;20497;-79
2023/07/26 09:29:11;;;;;;;7.10;2.60;;;22.40;99.90;;;;;;5069627;28;20512;-78
2023/07/26 09:31:38;;;;;;;8.70;2.45;;;22.40;99.90;;;;;;5076496;28;20056;-81
2023/07/26 09:34:05;;;;;;;6.07;2.40;;;22.30;99.90;;;;;;5075232;28;20044;-80
2023/07/26 09:36:32;;;;;;;8.57;2.42;;;22.00;99.90;;;;;;5076343;28;20063;-81
2023/07/26 09:38:59;;;;;;;8.35;2.58;;;21.80;99.90;;;;;;5058469;28;20040;-80
2023/07/26 09:41:26;;;;;;;8.02;2.47;;;21.40;99.90;;;;;;5058840;28;20064;-80
2023/07/26 09:43:52;;;;;;;8.45;2.83;;;21.30;99.90;;;;;;5075304;28;20448;-81
2023/07/26 09:46:26;;;;;;;6.68;2.90;;;21.30;99.90;;;;;;5074343;28;20436;-80
2023/07/26 09:48:52;;;;;;;7.55;3.13;;;21.60;99.90;;;;;;5075219;28;20040;-80
2023/07/26 09:51:20;;;;;;;7.68;2.70;;;22.10;99.90;;;;;;5075600;28;20036;-81
2023/07/26 09:53:57;;;;;;;6.25;2.60;;;22.50;99.90;;;;;;5058543;28;20044;-80
2023/07/26 09:56:25;;;;;;;6.28;2.53;;;22.70;99.90;;;;;;5075037;28;20037;-79
2023/07/26 09:58:52;;;;;;;6.45;2.65;;;22.50;99.90;;;;;;5075223;28;20349;-81
2023/07/26 10:01:19;;;;;;;6.97;2.80;;;22.20;99.90;;;;;;5075309;28;20052;-81
2023/07/26 10:03:46;;;;;;;6.18;2.67;;;22.00;99.90;;;;;;5075180;28;20391;-81
2023/07/26 10:06:12;;;;;;;11.25;2.65;;;22.00;99.90;;;;;;5053372;28;20041;-81
2023/07/26 10:08:41;;;;;;;6.80;2.90;;;22.30;99.90;;;;;;5054305;28;20044;-81
2023/07/26 10:11:08;;;;;;;7.97;2.80;;;22.30;99.90;;;;;;5054188;28;20345;-81
2023/07/26 10:13:35;;;;;;;8.05;2.50;;;22.50;99.90;;;;;;5053796;28;20045;-81
2023/07/26 10:16:01;;;;;;;6.45;2.63;;;22.60;99.90;;;;;;5088078;28;20111;-81
2023/07/26 10:18:28;;;;;;;7.47;2.63;;;22.80;99.90;;;;;;5094458;28;20043;-81
2023/07/26 10:20:55;;;;;;;7.63;3.03;;;23.10;99.90;;;;;;5095346;28;20032;-81
2023/07/26 10:23:21;;;;;;;6.57;2.60;;;23.30;99.90;;;;;;5095302;28;20181;-81
2023/07/26 10:25:49;;;;;;;6.75;2.80;;;23.40;99.90;;;;;;5095244;28;20047;-80
2023/07/26 10:28:17;;;;;;;7.03;2.70;;;23.60;99.90;;;;;;5095302;28;20036;-81
2023/07/26 10:30:43;;;;;;;7.72;2.92;;;23.50;99.90;;;;;;5095200;28;20032;-81
2023/07/26 10:33:11;;;;;;;7.45;2.97;;;23.40;99.90;;;;;;5082315;28;20090;-81
2023/07/26 10:35:37;;;;;;;8.40;3.42;;;23.70;99.90;;;;;;5078909;28;20052;-80
2023/07/26 10:38:04;;;;;;;6.97;2.90;;;23.90;99.90;;;;;;5056961;28;20052;-80
2023/07/26 10:40:31;;;;;;;7.22;3.63;;;24.40;99.90;;;;;;5074090;28;20051;-80
2023/07/26 10:42:58;;;;;;;6.88;2.95;;;24.50;98.70;;;;;;5074658;28;20072;-80
2023/07/26 10:45:24;;;;;;;7.97;3.70;;;24.60;98.80;;;;;;5070060;28;20066;-80
2023/07/26 10:47:51;;;;;;;7.18;3.50;;;24.80;99.90;;;;;;5055173;28;20036;-80
2023/07/26 10:50:20;;;;;;;8.07;3.90;;;25.00;97.20;;;;;;5037416;28;20132;-81
2023/07/26 10:52:46;;;;;;;6.93;3.53;;;25.10;96.60;;;;;;5054216;28;20071;-80
2023/07/26 10:55:13;;;;;;;6.90;3.63;;;25.10;95.60;;;;;;5037057;28;20044;-81
2023/07/26 10:57:43;;;;;;;7.00;3.35;;;25.00;95.20;;;;;;5068514;28;20066;-82
2023/07/26 11:00:10;;;;;;;7.13;3.67;;;24.80;94.40;;;;;;5059622;28;20059;-82
2023/07/26 11:02:37;;;;;;;6.82;3.63;;;24.20;94.10;;;;;;5076306;28;20483;-83
2023/07/26 11:05:05;;;;;;;6.70;3.83;;;24.40;95.50;;;;;;5055817;28;20105;-83
2023/07/26 11:10:18;;;;;;;6.72;2.85;;;24.70;96.90;;;;;;5059029;28;20040;-83
2023/07/26 11:12:45;;;;;;;7.15;2.97;;;25.10;93.80;;;;;;5056176;28;20047;-83
2023/07/26 11:15:12;;;;;;;7.13;3.70;;;25.10;93.70;;;;;;5054921;28;20051;-82
2023/07/26 11:17:58;;;;;;;6.65;2.90;;;24.90;93.60;;;;;;5074251;28;20126;-83
2023/07/26 11:20:25;;;;;;;7.32;3.67;;;24.80;92.90;;;;;;5055948;28;20079;-81
2023/07/26 11:22:52;;;;;;;7.30;3.72;;;24.60;91.70;;;;;;5056899;28;20052;-83
2023/07/26 11:25:22;;;;;;;6.97;3.45;;;25.10;91.60;;;;;;5055966;28;20071;-83
2023/07/26 11:27:49;;;;;;;6.57;3.50;;;25.30;91.80;;;;;;5073746;28;20126;-84
2023/07/26 11:30:15;;;;;;;6.70;3.42;;;25.70;92.00;;;;;;5073917;28;20048;-84
2023/07/26 11:32:42;;;;;;;8.07;3.60;;;26.00;91.50;;;;;;5073518;28;20068;-84
2023/07/26 11:35:09;;;;;;;6.90;3.20;;;26.50;91.40;;;;;;5056402;28;20178;-83
2023/07/26 11:37:37;;;;;;;5.63;2.95;;;27.10;87.50;;;;;;5056535;28;20041;-85
2023/07/26 11:40:04;;;;;;;6.47;3.28;;;27.00;86.10;;;;;;5073137;28;20098;-82
2023/07/26 11:42:31;;;;;;;6.97;3.30;;;27.00;84.60;;;;;;5073901;28;20075;-82
2023/07/26 11:44:57;;;;;;;6.53;3.40;;;26.90;86.20;;;;;;5073940;28;20513;-82
2023/07/26 11:47:24;;;;;;;7.13;3.20;;;27.10;84.10;;;;;;5050910;28;20053;-80
2023/07/26 11:49:52;;;;;;;8.85;4.05;;;27.30;86.30;;;;;;5072233;28;20459;-81
2023/07/26 11:52:19;;;;;;;6.85;3.30;;;27.80;84.00;;;;;;5072829;28;20056;-82
2023/07/26 11:54:46;;;;;;;7.45;3.38;;;27.60;84.10;;;;;;5055956;28;20044;-79
2023/07/26 11:57:14;;;;;;;6.75;3.72;;;26.50;84.10;;;;;;5073491;28;20155;-80
2023/07/26 11:59:41;;;;;;;8.13;3.78;;;25.90;84.70;;;;;;5060998;28;20040;-79
2023/07/26 12:02:07;;;;;;;6.90;3.55;;;25.30;88.60;;;;;;5074043;28;20126;-79
2023/07/26 12:04:34;;;;;;;7.28;3.92;;;25.20;90.20;;;;;;5056047;28;20052;-80
2023/07/26 12:07:01;;;;;;;7.88;3.83;;;25.30;90.10;;;;;;5052334;28;20045;-80
2023/07/26 12:09:28;;;;;;;9.52;4.05;;;25.70;90.40;;;;;;5040283;28;20044;-80
2023/07/26 12:11:55;;;;;;;6.97;3.95;;;26.30;90.30;;;;;;5076049;28;20033;-81
2023/07/26 12:14:22;;;;;;;7.25;3.95;;;26.40;90.00;;;;;;5074787;28;20384;-82
2023/07/26 12:16:51;;;;;;;7.72;3.67;;;26.20;89.70;;;;;;5055886;28;20037;-81
2023/07/26 12:19:19;;;;;;;7.07;3.85;;;26.70;90.10;;;;;;5076665;28;20044;-80
2023/07/26 12:21:45;;;;;;;7.80;3.88;;;26.70;87.80;;;;;;5079422;28;20052;-80
2023/07/26 12:24:12;;;;;;;8.20;4.05;;;26.30;89.80;;;;;;5082080;28;20043;-81
2023/07/26 12:26:39;;;;;;;8.23;4.00;;;26.40;90.00;;;;;;5071014;28;20056;-81
2023/07/26 12:29:06;;;;;;;6.68;3.50;;;26.60;88.10;;;;;;5077583;28;20113;-80
2023/07/26 12:31:32;;;;;;;6.68;3.65;;;26.30;88.40;;;;;;5076794;28;20119;-80
2023/07/26 12:34:00;;;;;;;6.43;3.50;;;26.40;88.40;;;;;;5076534;28;20048;-80
2023/07/26 12:36:29;;;;;;;7.10;3.72;;;26.60;87.70;;;;;;5059280;28;20475;-81
2023/07/26 12:38:57;;;;;;;7.00;3.60;;;26.90;88.70;;;;;;5058395;28;20052;-80
2023/07/26 12:41:24;;;;;;;6.90;3.72;;;26.90;84.60;;;;;;5076845;28;20040;-80
2023/07/26 12:43:51;;;;;;;6.47;3.40;;;26.40;83.90;;;;;;5077118;28;20068;-80
2023/07/26 12:46:21;;;;;;;6.53;3.67;;;26.00;88.40;;;;;;5075624;28;20124;-82
2023/07/26 12:48:47;;;;;;;8.13;4.05;;;26.20;87.50;;;;;;5059731;28;20505;-80
2023/07/26 12:51:15;;;;;;;6.93;3.70;;;26.80;82.20;;;;;;5042586;28;20094;-81